sensor_id;sensor_type;location;lat;lon;timestamp;P1;durP1;ratioP1;P2;durP2;ratioP2
2257;SDS011;1136;51.574;7.706;2022-07-22T00:00:56;6.40;;;6.00;;
2257;SDS011;1136;51.574;7.706;2022-07-22T00:03:22;6.43;;;5.80;;
2257;SDS011;1136;51.574;7.706;2022-07-22T00:05:49;7.00;;;6.50;;
2257;SDS011;1136;51.574;7.706;2022-07-22T00:08:16;5.30;;;5.00;;
2257;SDS011;1136;51.574;7.706;2022-07-22T00:10:42;7.10;;;6.50;;
2257;SDS011;1136;51.574;7.706;2022-07-22T00:13:09;5.77;;;5.27;;
2257;SDS011;1136;51.574;7.706;2022-07-22T00:15:35;6.90;;;6.10;;
2257;SDS011;1136;51.574;7.706;2022-07-22T00:18:02;7.40;;;6.67;;
2257;SDS011;1136;51.574;7.706;2022-07-22T00:20:28;9.37;;;6.30;;
2257;SDS011;1136;51.574;7.706;2022-07-22T00:22:55;6.77;;;6.07;;
2257;SDS011;1136;51.574;7.706;2022-07-22T00:25:21;6.03;;;5.50;;
2257;SDS011;1136;51.574;7.706;2022-07-22T00:27:48;5.97;;;5.30;;
2257;SDS011;1136;51.574;7.706;2022-07-22T00:30:15;6.70;;;6.10;;
2257;SDS011;1136;51.574;7.706;2022-07-22T00:32:41;6.33;;;5.93;;
2257;SDS011;1136;51.574;7.706;2022-07-22T00:35:08;6.93;;;6.53;;
2257;SDS011;1136;51.574;7.706;2022-07-22T00:37:35;7.07;;;6.37;;
2257;SDS011;1136;51.574;7.706;2022-07-22T00:40:02;8.07;;;7.30;;
2257;SDS011;1136;51.574;7.706;2022-07-22T00:42:29;8.40;;;7.70;;
2257;SDS011;1136;51.574;7.706;2022-07-22T00:44:56;7.53;;;6.83;;
2257;SDS011;1136;51.574;7.706;2022-07-22T00:47:23;8.67;;;7.90;;
2257;SDS011;1136;51.574;7.706;2022-07-22T00:49:50;8.13;;;7.53;;
2257;SDS011;1136;51.574;7.706;2022-07-22T00:52:17;7.40;;;6.73;;
2257;SDS011;1136;51.574;7.706;2022-07-22T00:54:45;6.80;;;6.20;;
2257;SDS011;1136;51.574;7.706;2022-07-22T00:57:11;7.20;;;6.70;;
2257;SDS011;1136;51.574;7.706;2022-07-22T00:59:38;6.27;;;5.87;;
2257;SDS011;1136;51.574;7.706;2022-07-22T01:02:05;7.10;;;6.50;;
2257;SDS011;1136;51.574;7.706;2022-07-22T01:04:31;7.10;;;6.60;;
2257;SDS011;1136;51.574;7.706;2022-07-22T01:06:58;7.43;;;6.73;;
2257;SDS011;1136;51.574;7.706;2022-07-22T01:09:25;8.00;;;7.20;;
2257;SDS011;1136;51.574;7.706;2022-07-22T01:11:52;8.33;;;7.47;;
2257;SDS011;1136;51.574;7.706;2022-07-22T01:14:18;8.80;;;7.90;;
2257;SDS011;1136;51.574;7.706;2022-07-22T01:16:45;9.63;;;7.97;;
2257;SDS011;1136;51.574;7.706;2022-07-22T01:19:15;10.13;;;8.43;;
2257;SDS011;1136;51.574;7.706;2022-07-22T01:21:41;7.77;;;6.80;;
2257;SDS011;1136;51.574;7.706;2022-07-22T01:24:08;7.00;;;6.40;;
2257;SDS011;1136;51.574;7.706;2022-07-22T01:26:34;10.03;;;7.13;;
2257;SDS011;1136;51.574;7.706;2022-07-22T01:29:01;7.90;;;7.20;;
2257;SDS011;1136;51.574;7.706;2022-07-22T01:31:28;7.97;;;6.50;;
2257;SDS011;1136;51.574;7.706;2022-07-22T01:33:55;7.50;;;6.80;;
2257;SDS011;1136;51.574;7.706;2022-07-22T01:36:22;7.00;;;6.50;;
2257;SDS011;1136;51.574;7.706;2022-07-22T01:38:49;6.47;;;5.97;;
2257;SDS011;1136;51.574;7.706;2022-07-22T01:41:16;6.73;;;6.07;;
2257;SDS011;1136;51.574;7.706;2022-07-22T01:43:42;6.20;;;5.67;;
2257;SDS011;1136;51.574;7.706;2022-07-22T01:46:09;7.23;;;6.53;;
2257;SDS011;1136;51.574;7.706;2022-07-22T01:48:36;6.87;;;6.27;;
2257;SDS011;1136;51.574;7.706;2022-07-22T01:51:02;8.17;;;6.60;;
2257;SDS011;1136;51.574;7.706;2022-07-22T01:53:29;7.30;;;6.67;;
2257;SDS011;1136;51.574;7.706;2022-07-22T01:55:56;6.50;;;5.97;;
2257;SDS011;1136;51.574;7.706;2022-07-22T01:58:22;7.73;;;7.13;;
2257;SDS011;1136;51.574;7.706;2022-07-22T02:00:49;7.87;;;6.50;;
2257;SDS011;1136;51.574;7.706;2022-07-22T02:03:15;6.80;;;6.20;;
2257;SDS011;1136;51.574;7.706;2022-07-22T02:05:42;7.10;;;6.17;;
2257;SDS011;1136;51.574;7.706;2022-07-22T02:08:09;8.90;;;6.70;;
2257;SDS011;1136;51.574;7.706;2022-07-22T02:10:36;6.60;;;5.80;;
2257;SDS011;1136;51.574;7.706;2022-07-22T02:13:03;6.90;;;6.30;;
2257;SDS011;1136;51.574;7.706;2022-07-22T02:15:30;7.90;;;6.60;;
2257;SDS011;1136;51.574;7.706;2022-07-22T02:17:57;7.20;;;6.50;;
2257;SDS011;1136;51.574;7.706;2022-07-22T02:20:24;6.10;;;5.30;;
2257;SDS011;1136;51.574;7.706;2022-07-22T02:22:50;8.83;;;5.87;;
2257;SDS011;1136;51.574;7.706;2022-07-22T02:25:17;6.13;;;5.63;;
2257;SDS011;1136;51.574;7.706;2022-07-22T02:27:44;6.30;;;5.70;;
2257;SDS011;1136;51.574;7.706;2022-07-22T02:30:10;6.17;;;5.20;;
2257;SDS011;1136;51.574;7.706;2022-07-22T02:32:37;5.53;;;5.23;;
2257;SDS011;1136;51.574;7.706;2022-07-22T02:35:04;6.07;;;5.33;;
2257;SDS011;1136;51.574;7.706;2022-07-22T02:37:31;5.27;;;4.77;;
2257;SDS011;1136;51.574;7.706;2022-07-22T02:39:58;5.03;;;4.63;;
2257;SDS011;1136;51.574;7.706;2022-07-22T02:42:25;5.20;;;4.70;;
2257;SDS011;1136;51.574;7.706;2022-07-22T02:44:51;6.10;;;4.87;;
2257;SDS011;1136;51.574;7.706;2022-07-22T02:47:18;7.57;;;5.87;;
2257;SDS011;1136;51.574;7.706;2022-07-22T02:49:44;6.13;;;5.57;;
2257;SDS011;1136;51.574;7.706;2022-07-22T02:52:11;6.40;;;6.00;;
2257;SDS011;1136;51.574;7.706;2022-07-22T02:54:37;8.53;;;7.70;;
2257;SDS011;1136;51.574;7.706;2022-07-22T02:57:04;8.67;;;7.87;;
2257;SDS011;1136;51.574;7.706;2022-07-22T02:59:30;8.47;;;7.80;;
2257;SDS011;1136;51.574;7.706;2022-07-22T03:01:57;9.27;;;8.37;;
2257;SDS011;1136;51.574;7.706;2022-07-22T03:04:24;8.43;;;7.60;;
2257;SDS011;1136;51.574;7.706;2022-07-22T03:06:50;10.33;;;7.80;;
2257;SDS011;1136;51.574;7.706;2022-07-22T03:09:17;8.83;;;7.93;;
2257;SDS011;1136;51.574;7.706;2022-07-22T03:11:45;8.43;;;7.70;;
2257;SDS011;1136;51.574;7.706;2022-07-22T03:14:12;7.83;;;7.23;;
2257;SDS011;1136;51.574;7.706;2022-07-22T03:16:38;9.40;;;8.50;;
2257;SDS011;1136;51.574;7.706;2022-07-22T03:19:05;11.37;;;8.90;;
2257;SDS011;1136;51.574;7.706;2022-07-22T03:21:32;8.70;;;7.87;;
2257;SDS011;1136;51.574;7.706;2022-07-22T03:23:59;8.50;;;7.80;;
2257;SDS011;1136;51.574;7.706;2022-07-22T03:26:26;8.57;;;7.77;;
2257;SDS011;1136;51.574;7.706;2022-07-22T03:28:53;8.67;;;7.87;;
2257;SDS011;1136;51.574;7.706;2022-07-22T03:31:20;10.17;;;9.33;;
2257;SDS011;1136;51.574;7.706;2022-07-22T03:33:47;9.93;;;8.93;;
2257;SDS011;1136;51.574;7.706;2022-07-22T03:36:14;10.03;;;9.07;;
2257;SDS011;1136;51.574;7.706;2022-07-22T03:38:40;10.17;;;9.17;;
2257;SDS011;1136;51.574;7.706;2022-07-22T03:41:07;9.90;;;8.90;;
2257;SDS011;1136;51.574;7.706;2022-07-22T03:43:34;8.23;;;7.30;;
2257;SDS011;1136;51.574;7.706;2022-07-22T03:46:00;7.67;;;6.87;;
2257;SDS011;1136;51.574;7.706;2022-07-22T03:48:27;7.93;;;7.13;;
2257;SDS011;1136;51.574;7.706;2022-07-22T03:50:53;8.07;;;6.47;;
2257;SDS011;1136;51.574;7.706;2022-07-22T03:53:20;9.03;;;6.70;;
2257;SDS011;1136;51.574;7.706;2022-07-22T03:55:47;10.10;;;6.40;;
2257;SDS011;1136;51.574;7.706;2022-07-22T03:58:13;7.80;;;7.00;;
2257;SDS011;1136;51.574;7.706;2022-07-22T04:00:42;10.47;;;6.10;;
2257;SDS011;1136;51.574;7.706;2022-07-22T04:03:09;6.70;;;6.10;;
2257;SDS011;1136;51.574;7.706;2022-07-22T04:05:35;10.10;;;7.80;;
2257;SDS011;1136;51.574;7.706;2022-07-22T04:08:02;10.57;;;7.73;;
2257;SDS011;1136;51.574;7.706;2022-07-22T04:10:28;10.63;;;7.70;;
2257;SDS011;1136;51.574;7.706;2022-07-22T04:12:55;8.80;;;7.67;;
2257;SDS011;1136;51.574;7.706;2022-07-22T04:15:22;12.63;;;8.40;;
2257;SDS011;1136;51.574;7.706;2022-07-22T04:17:50;8.97;;;8.03;;
2257;SDS011;1136;51.574;7.706;2022-07-22T04:20:17;18.53;;;8.03;;
2257;SDS011;1136;51.574;7.706;2022-07-22T04:22:43;14.30;;;7.03;;
2257;SDS011;1136;51.574;7.706;2022-07-22T04:25:10;7.57;;;6.80;;
2257;SDS011;1136;51.574;7.706;2022-07-22T04:27:37;8.20;;;7.40;;
2257;SDS011;1136;51.574;7.706;2022-07-22T04:30:03;8.00;;;6.63;;
2257;SDS011;1136;51.574;7.706;2022-07-22T04:32:30;10.60;;;8.80;;
2257;SDS011;1136;51.574;7.706;2022-07-22T04:34:57;12.27;;;8.37;;
2257;SDS011;1136;51.574;7.706;2022-07-22T04:37:23;10.40;;;9.40;;
2257;SDS011;1136;51.574;7.706;2022-07-22T04:39:50;9.13;;;8.07;;
2257;SDS011;1136;51.574;7.706;2022-07-22T04:42:17;9.30;;;8.10;;
2257;SDS011;1136;51.574;7.706;2022-07-22T04:44:43;9.23;;;7.87;;
2257;SDS011;1136;51.574;7.706;2022-07-22T04:47:11;8.53;;;7.73;;
2257;SDS011;1136;51.574;7.706;2022-07-22T04:49:38;8.17;;;7.47;;
2257;SDS011;1136;51.574;7.706;2022-07-22T04:52:05;8.07;;;7.10;;
2257;SDS011;1136;51.574;7.706;2022-07-22T04:54:34;7.80;;;6.83;;
2257;SDS011;1136;51.574;7.706;2022-07-22T04:57:01;12.07;;;7.60;;
2257;SDS011;1136;51.574;7.706;2022-07-22T04:59:28;9.03;;;7.57;;
2257;SDS011;1136;51.574;7.706;2022-07-22T05:01:55;7.80;;;6.93;;
2257;SDS011;1136;51.574;7.706;2022-07-22T05:04:21;8.30;;;7.50;;
2257;SDS011;1136;51.574;7.706;2022-07-22T05:06:48;9.03;;;8.10;;
2257;SDS011;1136;51.574;7.706;2022-07-22T05:09:15;9.93;;;7.93;;
2257;SDS011;1136;51.574;7.706;2022-07-22T05:11:41;10.97;;;7.77;;
2257;SDS011;1136;51.574;7.706;2022-07-22T05:14:08;8.37;;;6.30;;
2257;SDS011;1136;51.574;7.706;2022-07-22T05:16:35;12.87;;;7.40;;
2257;SDS011;1136;51.574;7.706;2022-07-22T05:19:04;7.87;;;7.17;;
2257;SDS011;1136;51.574;7.706;2022-07-22T05:21:31;6.60;;;6.03;;
2257;SDS011;1136;51.574;7.706;2022-07-22T05:23:58;6.90;;;6.37;;
2257;SDS011;1136;51.574;7.706;2022-07-22T05:26:25;10.70;;;7.20;;
2257;SDS011;1136;51.574;7.706;2022-07-22T05:28:54;8.37;;;7.40;;
2257;SDS011;1136;51.574;7.706;2022-07-22T05:31:22;8.00;;;7.20;;
2257;SDS011;1136;51.574;7.706;2022-07-22T05:33:48;15.37;;;8.60;;
2257;SDS011;1136;51.574;7.706;2022-07-22T05:36:15;7.87;;;7.17;;
2257;SDS011;1136;51.574;7.706;2022-07-22T05:38:41;10.83;;;7.60;;
2257;SDS011;1136;51.574;7.706;2022-07-22T05:41:08;8.57;;;6.60;;
2257;SDS011;1136;51.574;7.706;2022-07-22T05:43:35;11.50;;;7.17;;
2257;SDS011;1136;51.574;7.706;2022-07-22T05:46:01;7.80;;;5.80;;
2257;SDS011;1136;51.574;7.706;2022-07-22T05:48:28;10.43;;;6.90;;
2257;SDS011;1136;51.574;7.706;2022-07-22T05:50:55;10.93;;;7.00;;
2257;SDS011;1136;51.574;7.706;2022-07-22T05:53:21;7.47;;;6.33;;
2257;SDS011;1136;51.574;7.706;2022-07-22T05:55:48;12.80;;;6.83;;
2257;SDS011;1136;51.574;7.706;2022-07-22T05:58:15;11.00;;;6.10;;
2257;SDS011;1136;51.574;7.706;2022-07-22T06:00:41;11.00;;;7.00;;
2257;SDS011;1136;51.574;7.706;2022-07-22T06:03:08;5.80;;;4.90;;
2257;SDS011;1136;51.574;7.706;2022-07-22T06:05:43;11.90;;;4.43;;
2257;SDS011;1136;51.574;7.706;2022-07-22T06:08:09;10.20;;;3.60;;
2257;SDS011;1136;51.574;7.706;2022-07-22T06:10:36;7.53;;;3.97;;
2257;SDS011;1136;51.574;7.706;2022-07-22T06:13:02;6.87;;;3.43;;
2257;SDS011;1136;51.574;7.706;2022-07-22T06:15:29;3.93;;;3.50;;
2257;SDS011;1136;51.574;7.706;2022-07-22T06:17:55;6.43;;;3.90;;
2257;SDS011;1136;51.574;7.706;2022-07-22T06:20:22;6.30;;;3.57;;
2257;SDS011;1136;51.574;7.706;2022-07-22T06:22:49;6.27;;;4.10;;
2257;SDS011;1136;51.574;7.706;2022-07-22T06:25:15;8.27;;;3.63;;
2257;SDS011;1136;51.574;7.706;2022-07-22T06:28:02;5.80;;;3.47;;
2257;SDS011;1136;51.574;7.706;2022-07-22T06:30:29;4.20;;;3.17;;
2257;SDS011;1136;51.574;7.706;2022-07-22T06:32:55;8.87;;;3.77;;
2257;SDS011;1136;51.574;7.706;2022-07-22T06:35:22;3.40;;;2.60;;
2257;SDS011;1136;51.574;7.706;2022-07-22T06:37:51;3.47;;;2.80;;
2257;SDS011;1136;51.574;7.706;2022-07-22T06:40:31;11.10;;;4.83;;
2257;SDS011;1136;51.574;7.706;2022-07-22T06:42:58;9.73;;;3.90;;
2257;SDS011;1136;51.574;7.706;2022-07-22T06:45:25;7.27;;;3.43;;
2257;SDS011;1136;51.574;7.706;2022-07-22T06:47:52;11.90;;;3.63;;
2257;SDS011;1136;51.574;7.706;2022-07-22T06:50:19;6.30;;;3.40;;
2257;SDS011;1136;51.574;7.706;2022-07-22T06:52:45;7.20;;;3.17;;
2257;SDS011;1136;51.574;7.706;2022-07-22T06:55:12;5.67;;;3.00;;
2257;SDS011;1136;51.574;7.706;2022-07-22T06:57:39;4.90;;;3.03;;
2257;SDS011;1136;51.574;7.706;2022-07-22T07:00:05;10.23;;;3.10;;
2257;SDS011;1136;51.574;7.706;2022-07-22T07:02:36;4.80;;;3.03;;
2257;SDS011;1136;51.574;7.706;2022-07-22T07:05:02;6.77;;;3.47;;
2257;SDS011;1136;51.574;7.706;2022-07-22T07:07:29;16.23;;;3.40;;
2257;SDS011;1136;51.574;7.706;2022-07-22T07:09:56;4.90;;;2.93;;
2257;SDS011;1136;51.574;7.706;2022-07-22T07:12:22;7.43;;;4.13;;
2257;SDS011;1136;51.574;7.706;2022-07-22T07:14:49;6.30;;;4.30;;
2257;SDS011;1136;51.574;7.706;2022-07-22T07:17:35;7.00;;;2.90;;
2257;SDS011;1136;51.574;7.706;2022-07-22T07:20:02;5.90;;;3.20;;
2257;SDS011;1136;51.574;7.706;2022-07-22T07:22:29;7.13;;;3.07;;
2257;SDS011;1136;51.574;7.706;2022-07-22T07:24:56;6.83;;;3.47;;
2257;SDS011;1136;51.574;7.706;2022-07-22T07:27:23;8.83;;;3.97;;
2257;SDS011;1136;51.574;7.706;2022-07-22T07:29:51;6.13;;;3.63;;
2257;SDS011;1136;51.574;7.706;2022-07-22T07:32:17;5.27;;;3.50;;
2257;SDS011;1136;51.574;7.706;2022-07-22T07:34:44;5.93;;;3.50;;
2257;SDS011;1136;51.574;7.706;2022-07-22T07:37:11;4.83;;;4.03;;
2257;SDS011;1136;51.574;7.706;2022-07-22T07:39:38;8.03;;;4.07;;
2257;SDS011;1136;51.574;7.706;2022-07-22T07:42:05;7.03;;;5.00;;
2257;SDS011;1136;51.574;7.706;2022-07-22T07:44:32;9.10;;;5.50;;
2257;SDS011;1136;51.574;7.706;2022-07-22T07:46:58;5.90;;;5.17;;
2257;SDS011;1136;51.574;7.706;2022-07-22T07:49:25;14.77;;;7.40;;
2257;SDS011;1136;51.574;7.706;2022-07-22T07:51:52;9.03;;;7.10;;
2257;SDS011;1136;51.574;7.706;2022-07-22T07:54:21;9.17;;;7.00;;
2257;SDS011;1136;51.574;7.706;2022-07-22T07:56:48;12.43;;;6.10;;
2257;SDS011;1136;51.574;7.706;2022-07-22T07:59:17;7.00;;;5.20;;
2257;SDS011;1136;51.574;7.706;2022-07-22T08:01:54;8.00;;;4.80;;
2257;SDS011;1136;51.574;7.706;2022-07-22T08:04:25;7.57;;;5.03;;
2257;SDS011;1136;51.574;7.706;2022-07-22T08:07:05;11.17;;;5.80;;
2257;SDS011;1136;51.574;7.706;2022-07-22T08:09:32;6.67;;;3.70;;
2257;SDS011;1136;51.574;7.706;2022-07-22T08:12:02;7.10;;;4.67;;
2257;SDS011;1136;51.574;7.706;2022-07-22T08:14:30;5.73;;;3.47;;
2257;SDS011;1136;51.574;7.706;2022-07-22T08:16:57;5.00;;;3.83;;
2257;SDS011;1136;51.574;7.706;2022-07-22T08:19:24;7.30;;;4.77;;
2257;SDS011;1136;51.574;7.706;2022-07-22T08:21:51;5.33;;;3.70;;
2257;SDS011;1136;51.574;7.706;2022-07-22T08:24:18;4.43;;;3.73;;
2257;SDS011;1136;51.574;7.706;2022-07-22T08:26:44;3.93;;;3.60;;
2257;SDS011;1136;51.574;7.706;2022-07-22T08:29:11;7.57;;;4.50;;
2257;SDS011;1136;51.574;7.706;2022-07-22T08:31:38;9.17;;;4.13;;
2257;SDS011;1136;51.574;7.706;2022-07-22T08:34:05;7.80;;;4.20;;
2257;SDS011;1136;51.574;7.706;2022-07-22T08:36:31;8.40;;;5.10;;
2257;SDS011;1136;51.574;7.706;2022-07-22T08:38:58;9.90;;;4.73;;
2257;SDS011;1136;51.574;7.706;2022-07-22T08:41:26;9.73;;;5.33;;
2257;SDS011;1136;51.574;7.706;2022-07-22T08:43:53;5.93;;;4.90;;
2257;SDS011;1136;51.574;7.706;2022-07-22T08:46:20;8.50;;;5.73;;
2257;SDS011;1136;51.574;7.706;2022-07-22T08:48:47;6.67;;;4.83;;
2257;SDS011;1136;51.574;7.706;2022-07-22T08:51:15;8.03;;;5.07;;
2257;SDS011;1136;51.574;7.706;2022-07-22T08:53:41;6.90;;;4.77;;
2257;SDS011;1136;51.574;7.706;2022-07-22T08:56:08;8.03;;;5.23;;
2257;SDS011;1136;51.574;7.706;2022-07-22T08:58:34;7.03;;;4.93;;
2257;SDS011;1136;51.574;7.706;2022-07-22T09:01:15;4.80;;;4.00;;
2257;SDS011;1136;51.574;7.706;2022-07-22T09:03:53;6.40;;;4.13;;
2257;SDS011;1136;51.574;7.706;2022-07-22T09:06:23;4.93;;;4.00;;
2257;SDS011;1136;51.574;7.706;2022-07-22T09:08:59;6.33;;;4.20;;
2257;SDS011;1136;51.574;7.706;2022-07-22T09:11:28;8.60;;;4.40;;
2257;SDS011;1136;51.574;7.706;2022-07-22T09:13:56;4.20;;;3.50;;
2257;SDS011;1136;51.574;7.706;2022-07-22T09:16:45;13.10;;;9.60;;
2257;SDS011;1136;51.574;7.706;2022-07-22T09:19:13;14.33;;;10.37;;
2257;SDS011;1136;51.574;7.706;2022-07-22T09:21:43;16.30;;;13.33;;
2257;SDS011;1136;51.574;7.706;2022-07-22T09:24:26;20.50;;;14.20;;
2257;SDS011;1136;51.574;7.706;2022-07-22T09:26:54;24.60;;;16.70;;
2257;SDS011;1136;51.574;7.706;2022-07-22T09:29:22;20.40;;;15.50;;
2257;SDS011;1136;51.574;7.706;2022-07-22T09:31:51;22.87;;;16.87;;
2257;SDS011;1136;51.574;7.706;2022-07-22T09:34:26;22.10;;;17.37;;
2257;SDS011;1136;51.574;7.706;2022-07-22T09:36:57;23.37;;;16.33;;
2257;SDS011;1136;51.574;7.706;2022-07-22T09:39:26;16.67;;;13.70;;
2257;SDS011;1136;51.574;7.706;2022-07-22T09:41:57;19.47;;;14.83;;
2257;SDS011;1136;51.574;7.706;2022-07-22T09:44:25;21.30;;;12.53;;
2257;SDS011;1136;51.574;7.706;2022-07-22T09:46:52;13.80;;;11.63;;
2257;SDS011;1136;51.574;7.706;2022-07-22T09:49:35;14.80;;;13.27;;
2257;SDS011;1136;51.574;7.706;2022-07-22T09:52:05;20.77;;;12.93;;
2257;SDS011;1136;51.574;7.706;2022-07-22T09:54:32;17.20;;;12.70;;
2257;SDS011;1136;51.574;7.706;2022-07-22T09:56:59;16.53;;;13.13;;
2257;SDS011;1136;51.574;7.706;2022-07-22T09:59:26;13.07;;;11.77;;
2257;SDS011;1136;51.574;7.706;2022-07-22T10:01:56;11.27;;;10.17;;
2257;SDS011;1136;51.574;7.706;2022-07-22T10:04:24;12.30;;;11.10;;
2257;SDS011;1136;51.574;7.706;2022-07-22T10:06:54;11.93;;;10.70;;
2257;SDS011;1136;51.574;7.706;2022-07-22T10:09:22;13.50;;;10.50;;
2257;SDS011;1136;51.574;7.706;2022-07-22T10:11:49;12.77;;;10.97;;
2257;SDS011;1136;51.574;7.706;2022-07-22T10:14:17;12.20;;;10.73;;
2257;SDS011;1136;51.574;7.706;2022-07-22T10:16:48;15.53;;;14.07;;
2257;SDS011;1136;51.574;7.706;2022-07-22T10:19:15;14.27;;;12.97;;
2257;SDS011;1136;51.574;7.706;2022-07-22T10:21:41;9.00;;;8.13;;
2257;SDS011;1136;51.574;7.706;2022-07-22T10:24:10;8.67;;;7.77;;
2257;SDS011;1136;51.574;7.706;2022-07-22T10:26:45;7.70;;;6.60;;
2257;SDS011;1136;51.574;7.706;2022-07-22T10:29:32;7.47;;;6.63;;
2257;SDS011;1136;51.574;7.706;2022-07-22T10:35:18;10.37;;;6.20;;
2257;SDS011;1136;51.574;7.706;2022-07-22T10:58:50;15.00;;;13.47;;
2257;SDS011;1136;51.574;7.706;2022-07-22T11:01:19;15.53;;;14.03;;
2257;SDS011;1136;51.574;7.706;2022-07-22T11:03:48;17.53;;;15.90;;
2257;SDS011;1136;51.574;7.706;2022-07-22T11:08:42;16.33;;;14.63;;
2257;SDS011;1136;51.574;7.706;2022-07-22T11:11:10;14.77;;;13.37;;
2257;SDS011;1136;51.574;7.706;2022-07-22T11:13:37;18.80;;;17.13;;
2257;SDS011;1136;51.574;7.706;2022-07-22T11:18:49;18.50;;;16.70;;
2257;SDS011;1136;51.574;7.706;2022-07-22T11:21:27;16.60;;;15.00;;
2257;SDS011;1136;51.574;7.706;2022-07-22T11:24:00;14.00;;;12.70;;
2257;SDS011;1136;51.574;7.706;2022-07-22T11:29:15;16.43;;;13.67;;
2257;SDS011;1136;51.574;7.706;2022-07-22T11:31:43;15.03;;;13.57;;
2257;SDS011;1136;51.574;7.706;2022-07-22T11:34:11;14.43;;;12.40;;
2257;SDS011;1136;51.574;7.706;2022-07-22T11:36:43;14.73;;;12.77;;
2257;SDS011;1136;51.574;7.706;2022-07-22T11:39:13;23.30;;;20.90;;
2257;SDS011;1136;51.574;7.706;2022-07-22T11:41:40;23.83;;;21.50;;
2257;SDS011;1136;51.574;7.706;2022-07-22T11:44:07;23.23;;;21.07;;
2257;SDS011;1136;51.574;7.706;2022-07-22T11:46:40;24.03;;;21.70;;
2257;SDS011;1136;51.574;7.706;2022-07-22T11:49:09;18.20;;;16.50;;
2257;SDS011;1136;51.574;7.706;2022-07-22T11:51:37;19.53;;;17.80;;
2257;SDS011;1136;51.574;7.706;2022-07-22T11:54:04;20.43;;;18.60;;
2257;SDS011;1136;51.574;7.706;2022-07-22T11:56:32;24.53;;;17.93;;
2257;SDS011;1136;51.574;7.706;2022-07-22T11:58:59;19.10;;;17.40;;
2257;SDS011;1136;51.574;7.706;2022-07-22T12:01:31;22.93;;;18.93;;
2257;SDS011;1136;51.574;7.706;2022-07-22T12:04:01;21.07;;;18.80;;
2257;SDS011;1136;51.574;7.706;2022-07-22T12:06:30;19.20;;;17.50;;
2257;SDS011;1136;51.574;7.706;2022-07-22T12:09:08;18.00;;;16.20;;
2257;SDS011;1136;51.574;7.706;2022-07-22T12:11:36;18.70;;;16.97;;
2257;SDS011;1136;51.574;7.706;2022-07-22T12:14:14;19.97;;;18.00;;
2257;SDS011;1136;51.574;7.706;2022-07-22T12:16:52;15.67;;;14.07;;
2257;SDS011;1136;51.574;7.706;2022-07-22T12:19:21;15.17;;;13.73;;
2257;SDS011;1136;51.574;7.706;2022-07-22T12:24:25;17.33;;;15.63;;
2257;SDS011;1136;51.574;7.706;2022-07-22T12:26:56;17.47;;;15.77;;
2257;SDS011;1136;51.574;7.706;2022-07-22T12:29:29;18.93;;;17.10;;
2257;SDS011;1136;51.574;7.706;2022-07-22T12:31:59;17.70;;;16.20;;
2257;SDS011;1136;51.574;7.706;2022-07-22T12:36:57;15.63;;;14.23;;
2257;SDS011;1136;51.574;7.706;2022-07-22T12:39:24;17.07;;;15.37;;
2257;SDS011;1136;51.574;7.706;2022-07-22T12:41:52;13.90;;;12.70;;
2257;SDS011;1136;51.574;7.706;2022-07-22T12:44:25;15.37;;;12.97;;
2257;SDS011;1136;51.574;7.706;2022-07-22T12:47:00;12.13;;;11.13;;
2257;SDS011;1136;51.574;7.706;2022-07-22T12:49:26;12.87;;;11.70;;
2257;SDS011;1136;51.574;7.706;2022-07-22T12:54:33;13.43;;;12.13;;
2257;SDS011;1136;51.574;7.706;2022-07-22T12:57:01;12.73;;;11.17;;
2257;SDS011;1136;51.574;7.706;2022-07-22T12:59:28;14.20;;;11.60;;
2257;SDS011;1136;51.574;7.706;2022-07-22T13:01:55;12.67;;;11.37;;
2257;SDS011;1136;51.574;7.706;2022-07-22T13:04:22;13.43;;;12.10;;
2257;SDS011;1136;51.574;7.706;2022-07-22T13:06:49;12.20;;;11.03;;
2257;SDS011;1136;51.574;7.706;2022-07-22T13:09:16;13.83;;;12.37;;
2257;SDS011;1136;51.574;7.706;2022-07-22T13:11:43;12.93;;;11.70;;
2257;SDS011;1136;51.574;7.706;2022-07-22T13:14:12;12.70;;;11.60;;
2257;SDS011;1136;51.574;7.706;2022-07-22T13:16:40;12.53;;;11.20;;
2257;SDS011;1136;51.574;7.706;2022-07-22T13:19:06;14.70;;;13.30;;
2257;SDS011;1136;51.574;7.706;2022-07-22T13:21:33;13.63;;;12.40;;
2257;SDS011;1136;51.574;7.706;2022-07-22T13:24:00;14.70;;;13.40;;
2257;SDS011;1136;51.574;7.706;2022-07-22T13:26:27;16.07;;;14.10;;
2257;SDS011;1136;51.574;7.706;2022-07-22T13:28:54;14.67;;;13.20;;
2257;SDS011;1136;51.574;7.706;2022-07-22T13:31:21;15.13;;;11.60;;
2257;SDS011;1136;51.574;7.706;2022-07-22T13:33:47;13.00;;;11.80;;
2257;SDS011;1136;51.574;7.706;2022-07-22T13:36:14;13.50;;;12.30;;
2257;SDS011;1136;51.574;7.706;2022-07-22T13:38:41;13.37;;;12.17;;
2257;SDS011;1136;51.574;7.706;2022-07-22T13:41:07;16.40;;;14.80;;
2257;SDS011;1136;51.574;7.706;2022-07-22T13:43:43;17.60;;;15.90;;
2257;SDS011;1136;51.574;7.706;2022-07-22T13:46:10;20.00;;;18.10;;
2257;SDS011;1136;51.574;7.706;2022-07-22T13:48:37;20.40;;;15.63;;
2257;SDS011;1136;51.574;7.706;2022-07-22T13:51:04;17.90;;;16.23;;
2257;SDS011;1136;51.574;7.706;2022-07-22T13:53:31;17.70;;;15.03;;
2257;SDS011;1136;51.574;7.706;2022-07-22T13:55:57;17.57;;;15.80;;
2257;SDS011;1136;51.574;7.706;2022-07-22T13:58:24;16.10;;;14.40;;
2257;SDS011;1136;51.574;7.706;2022-07-22T14:00:51;16.50;;;14.80;;
2257;SDS011;1136;51.574;7.706;2022-07-22T14:03:17;15.13;;;13.77;;
2257;SDS011;1136;51.574;7.706;2022-07-22T14:05:44;13.73;;;12.47;;
2257;SDS011;1136;51.574;7.706;2022-07-22T14:08:11;14.73;;;13.33;;
2257;SDS011;1136;51.574;7.706;2022-07-22T14:10:37;15.07;;;13.57;;
2257;SDS011;1136;51.574;7.706;2022-07-22T14:13:04;15.50;;;13.90;;
2257;SDS011;1136;51.574;7.706;2022-07-22T14:15:33;16.00;;;14.50;;
2257;SDS011;1136;51.574;7.706;2022-07-22T14:18:00;16.00;;;14.33;;
2257;SDS011;1136;51.574;7.706;2022-07-22T14:20:28;15.80;;;14.40;;
2257;SDS011;1136;51.574;7.706;2022-07-22T14:22:55;18.50;;;14.70;;
2257;SDS011;1136;51.574;7.706;2022-07-22T14:25:22;16.17;;;14.67;;
2257;SDS011;1136;51.574;7.706;2022-07-22T14:27:49;16.87;;;15.27;;
2257;SDS011;1136;51.574;7.706;2022-07-22T14:30:36;15.90;;;14.30;;
2257;SDS011;1136;51.574;7.706;2022-07-22T14:33:03;16.33;;;14.70;;
2257;SDS011;1136;51.574;7.706;2022-07-22T14:35:29;15.97;;;14.47;;
2257;SDS011;1136;51.574;7.706;2022-07-22T14:38:00;16.10;;;14.60;;
2257;SDS011;1136;51.574;7.706;2022-07-22T14:40:27;16.73;;;15.23;;
2257;SDS011;1136;51.574;7.706;2022-07-22T14:42:53;15.23;;;13.93;;
2257;SDS011;1136;51.574;7.706;2022-07-22T14:45:40;15.60;;;14.10;;
2257;SDS011;1136;51.574;7.706;2022-07-22T14:48:07;14.70;;;13.40;;
2257;SDS011;1136;51.574;7.706;2022-07-22T14:50:33;15.93;;;14.27;;
2257;SDS011;1136;51.574;7.706;2022-07-22T14:53:00;15.00;;;13.70;;
2257;SDS011;1136;51.574;7.706;2022-07-22T14:55:26;16.30;;;14.70;;
2257;SDS011;1136;51.574;7.706;2022-07-22T14:57:53;15.33;;;13.63;;
2257;SDS011;1136;51.574;7.706;2022-07-22T15:00:20;16.97;;;15.37;;
2257;SDS011;1136;51.574;7.706;2022-07-22T15:02:46;16.27;;;14.77;;
2257;SDS011;1136;51.574;7.706;2022-07-22T15:05:13;16.93;;;15.43;;
2257;SDS011;1136;51.574;7.706;2022-07-22T15:07:41;16.93;;;15.43;;
2257;SDS011;1136;51.574;7.706;2022-07-22T15:10:10;16.67;;;15.07;;
2257;SDS011;1136;51.574;7.706;2022-07-22T15:12:37;17.60;;;15.80;;
2257;SDS011;1136;51.574;7.706;2022-07-22T15:15:14;15.80;;;14.30;;
2257;SDS011;1136;51.574;7.706;2022-07-22T15:17:41;17.70;;;16.00;;
2257;SDS011;1136;51.574;7.706;2022-07-22T15:20:09;17.30;;;15.70;;
2257;SDS011;1136;51.574;7.706;2022-07-22T15:22:36;16.93;;;15.50;;
2257;SDS011;1136;51.574;7.706;2022-07-22T15:25:03;17.17;;;15.67;;
2257;SDS011;1136;51.574;7.706;2022-07-22T15:27:30;17.73;;;16.10;;
2257;SDS011;1136;51.574;7.706;2022-07-22T15:29:56;16.93;;;15.43;;
2257;SDS011;1136;51.574;7.706;2022-07-22T15:32:23;17.20;;;15.60;;
2257;SDS011;1136;51.574;7.706;2022-07-22T15:34:49;19.20;;;17.40;;
2257;SDS011;1136;51.574;7.706;2022-07-22T15:37:16;16.77;;;15.00;;
2257;SDS011;1136;51.574;7.706;2022-07-22T15:39:46;17.40;;;15.80;;
2257;SDS011;1136;51.574;7.706;2022-07-22T15:42:12;17.00;;;15.50;;
2257;SDS011;1136;51.574;7.706;2022-07-22T15:44:39;20.33;;;18.33;;
2257;SDS011;1136;51.574;7.706;2022-07-22T15:47:06;19.43;;;17.63;;